createdAt,value
2023-02-22T00:01:28.334Z,23.92
2023-02-22T00:03:55.164Z,23.58
2023-02-22T00:06:25.033Z,24.75
2023-02-22T00:08:52.575Z,23.60
2023-02-22T00:11:20.658Z,23.27
2023-02-22T00:13:47.658Z,25.88
2023-02-22T00:16:25.434Z,26.45
2023-02-22T00:18:52.511Z,26.70
2023-02-22T00:21:19.532Z,25.77
2023-02-22T00:23:47.992Z,26.65
2023-02-22T00:26:18.380Z,25.50
2023-02-22T00:28:51.540Z,26.92
2023-02-22T00:31:19.531Z,28.33
2023-02-22T00:33:46.387Z,28.25
2023-02-22T00:36:14.045Z,27.40
2023-02-22T00:38:41.556Z,28.17
2023-02-22T00:41:08.313Z,29.25
2023-02-22T00:43:35.130Z,28.02
2023-02-22T00:46:01.743Z,28.13
2023-02-22T00:48:28.613Z,29.58
2023-02-22T00:50:55.471Z,29.38
2023-02-22T00:53:23.905Z,30.42
2023-02-22T00:55:50.747Z,29.67
2023-02-22T00:58:18.531Z,28.63
2023-02-22T01:00:46.067Z,29.48
2023-02-22T01:03:17.192Z,29.42
2023-02-22T01:05:44.170Z,29.10
2023-02-22T01:08:13.747Z,28.63
2023-02-22T01:10:40.689Z,28.58
2023-02-22T01:13:09.281Z,27.77
2023-02-22T01:15:38.961Z,28.23
2023-02-22T01:18:05.830Z,27.33
2023-02-22T01:20:33.248Z,27.50
2023-02-22T01:23:03.403Z,28.95
2023-02-22T01:25:31.640Z,28.25
2023-02-22T01:27:59.959Z,29.33
2023-02-22T01:30:30.586Z,27.63
2023-02-22T01:32:58.062Z,27.98
2023-02-22T01:35:27.955Z,26.65
2023-02-22T01:37:55.287Z,27.50
2023-02-22T01:40:25.216Z,27.05
2023-02-22T01:42:53.970Z,28.92
2023-02-22T01:45:29.942Z,29.65
2023-02-22T01:48:04.036Z,27.88
2023-02-22T01:50:33.866Z,29.60
2023-02-22T01:53:01.488Z,28.25
2023-02-22T01:55:28.428Z,27.20
2023-02-22T01:57:56.887Z,27.27
2023-02-22T02:00:24.444Z,27.90
2023-02-22T02:02:59.078Z,27.33
2023-02-22T02:05:27.308Z,28.75
2023-02-22T02:07:54.199Z,28.08
2023-02-22T02:10:21.463Z,28.48
2023-02-22T02:12:50.553Z,29.65
2023-02-22T02:15:30.736Z,28.02
2023-02-22T02:18:03.932Z,27.13
2023-02-22T02:20:42.832Z,27.25
2023-02-22T02:23:41.153Z,29.98
2023-02-22T02:26:22.418Z,29.15
2023-02-22T02:29:19.742Z,29.00
2023-02-22T02:32:11.647Z,28.65
2023-02-22T02:34:41.298Z,27.67
2023-02-22T02:37:40.303Z,28.70
2023-02-22T02:40:24.195Z,28.92
2023-02-22T02:42:55.787Z,28.95
2023-02-22T02:45:30.997Z,29.45
2023-02-22T02:47:59.303Z,27.58
2023-02-22T02:50:29.937Z,27.75
2023-02-22T02:52:59.871Z,28.38
2023-02-22T02:55:29.184Z,28.38
2023-02-22T02:57:55.873Z,29.90
2023-02-22T03:00:26.706Z,28.15
2023-02-22T03:03:31.031Z,29.15
2023-02-22T03:06:23.829Z,26.55
2023-02-22T03:09:03.589Z,28.38
2023-02-22T03:12:24.124Z,28.58
2023-02-22T03:15:08.516Z,28.98
2023-02-22T03:18:03.513Z,29.52
2023-02-22T03:20:33.516Z,26.67
2023-02-22T03:23:10.568Z,27.75
2023-02-22T03:25:43.620Z,28.08
2023-02-22T03:28:12.197Z,27.63
2023-02-22T03:30:48.453Z,28.00
2023-02-22T03:33:20.999Z,28.13
2023-02-22T03:35:56.931Z,28.70
2023-02-22T03:38:27.233Z,30.40
2023-02-22T03:40:59.316Z,29.30
2023-02-22T03:43:30.803Z,27.95
2023-02-22T03:46:00.885Z,29.75
2023-02-22T03:48:30.590Z,30.30
2023-02-22T03:51:02.789Z,32.40
2023-02-22T03:53:30.609Z,32.05
2023-02-22T03:55:58.307Z,31.65
2023-02-22T03:58:25.816Z,31.45
2023-02-22T04:00:53.539Z,31.80
2023-02-22T04:03:23.622Z,32.25
2023-02-22T04:05:51.110Z,32.42
2023-02-22T04:08:19.246Z,32.50
2023-02-22T04:10:46.758Z,34.25
2023-02-22T04:13:17.620Z,34.22
2023-02-22T04:15:47.205Z,32.90
2023-02-22T04:18:14.170Z,33.00
2023-02-22T04:20:41.388Z,35.17
2023-02-22T04:23:11.010Z,34.15
2023-02-22T04:25:40.047Z,34.42
2023-02-22T04:28:15.550Z,34.78
2023-02-22T04:30:47.817Z,35.13
2023-02-22T04:33:16.750Z,36.10
2023-02-22T04:35:43.438Z,38.38
2023-02-22T04:38:10.116Z,36.88
2023-02-22T04:40:39.172Z,38.08
2023-02-22T04:43:06.831Z,37.40
2023-02-22T04:45:33.420Z,39.03
2023-02-22T04:48:01.344Z,39.10
2023-02-22T04:50:28.217Z,39.78
2023-02-22T04:52:56.420Z,38.33
2023-02-22T04:55:23.539Z,40.08
2023-02-22T04:57:50.317Z,38.28
2023-02-22T05:00:18.947Z,40.10
2023-02-22T05:02:45.830Z,39.58
2023-02-22T05:05:14.764Z,38.90
2023-02-22T05:07:41.613Z,41.10
2023-02-22T05:10:08.894Z,41.28
2023-02-22T05:12:36.170Z,40.40
2023-02-22T05:15:06.545Z,40.97
2023-02-22T05:17:33.572Z,41.65
2023-02-22T05:20:00.309Z,40.15
2023-02-22T05:22:26.923Z,37.30
2023-02-22T05:24:53.559Z,41.33
2023-02-22T05:27:20.139Z,42.20
2023-02-22T05:29:46.758Z,42.00
2023-02-22T05:32:13.334Z,41.97
2023-02-22T05:34:39.940Z,43.42
2023-02-22T05:37:06.929Z,43.30
2023-02-22T05:39:33.610Z,42.45
2023-02-22T05:42:00.286Z,41.45
2023-02-22T05:44:28.008Z,41.10
2023-02-22T05:46:54.642Z,42.40
2023-02-22T05:49:21.326Z,39.70
2023-02-22T05:51:47.952Z,41.35
2023-02-22T05:54:14.469Z,41.70
2023-02-22T05:56:41.063Z,41.00
2023-02-22T05:59:07.744Z,45.83
2023-02-22T06:01:34.282Z,43.97
2023-02-22T06:04:00.987Z,41.20
2023-02-22T06:06:27.565Z,43.50
2023-02-22T06:08:54.155Z,41.22
2023-02-22T06:11:20.724Z,43.17
2023-02-22T06:13:51.788Z,42.42
2023-02-22T06:16:19.278Z,45.40
2023-02-22T06:18:45.987Z,43.92
2023-02-22T06:21:12.627Z,43.35
2023-02-22T06:23:39.205Z,43.58
2023-02-22T06:26:06.075Z,42.90
2023-02-22T06:28:32.713Z,43.78
2023-02-22T06:30:59.394Z,44.35
2023-02-22T06:33:26.070Z,43.95
2023-02-22T06:35:52.679Z,43.90
2023-02-22T06:38:23.935Z,42.70
2023-02-22T06:40:51.026Z,42.08
2023-02-22T06:43:17.760Z,44.22
2023-02-22T06:45:44.449Z,45.95
2023-02-22T06:48:11.166Z,44.58
2023-02-22T06:50:37.765Z,44.22
2023-02-22T06:53:04.359Z,41.67
2023-02-22T06:55:32.970Z,45.00
2023-02-22T06:58:00.174Z,43.67
2023-02-22T07:00:28.270Z,42.92
2023-02-22T07:02:55.429Z,45.38
2023-02-22T07:05:23.193Z,45.00
2023-02-22T07:07:52.588Z,43.80
2023-02-22T07:10:26.217Z,42.13
2023-02-22T07:12:52.789Z,44.10
2023-02-22T07:15:24.153Z,44.05
2023-02-22T07:17:52.043Z,42.92
2023-02-22T07:20:20.649Z,42.95
2023-02-22T07:22:48.481Z,42.58
2023-02-22T07:25:15.032Z,45.30
2023-02-22T07:27:42.933Z,45.83
2023-02-22T07:30:19.267Z,45.78
2023-02-22T07:32:46.794Z,42.20
2023-02-22T07:35:29.420Z,45.92
2023-02-22T07:37:56.277Z,45.55
2023-02-22T07:40:24.425Z,42.80
2023-02-22T07:43:14.477Z,42.67
2023-02-22T07:45:41.346Z,42.40
2023-02-22T07:48:08.390Z,42.63
2023-02-22T07:50:35.653Z,43.67
2023-02-22T07:53:05.707Z,44.22
2023-02-22T07:55:33.436Z,41.85
2023-02-22T07:58:02.262Z,43.13
2023-02-22T08:00:34.524Z,42.53
2023-02-22T08:03:03.080Z,43.58
2023-02-22T08:05:31.465Z,42.70
2023-02-22T08:07:58.435Z,44.78
2023-02-22T08:10:26.489Z,42.08
2023-02-22T08:12:53.775Z,41.40
2023-02-22T08:15:30.319Z,44.28
2023-02-22T08:17:58.123Z,43.95
2023-02-22T08:20:25.258Z,42.65
2023-02-22T08:22:52.016Z,41.15
2023-02-22T08:25:20.784Z,44.13
2023-02-22T08:27:47.397Z,44.88
2023-02-22T08:30:20.202Z,44.65
2023-02-22T08:32:47.628Z,44.00
2023-02-22T08:35:15.916Z,43.53
2023-02-22T08:37:44.306Z,44.05
2023-02-22T08:40:13.333Z,44.03
2023-02-22T08:42:41.077Z,42.90
2023-02-22T08:45:08.115Z,42.53
2023-02-22T08:47:34.714Z,44.03
2023-02-22T08:50:01.697Z,45.15
2023-02-22T08:52:28.425Z,44.65
2023-02-22T08:54:55.679Z,44.55
2023-02-22T08:57:22.402Z,43.45
2023-02-22T08:59:49.091Z,43.33
2023-02-22T09:02:17.609Z,44.30
2023-02-22T09:04:44.741Z,46.17
2023-02-22T09:07:11.459Z,44.63
2023-02-22T09:09:38.142Z,42.42
2023-02-22T09:12:05.121Z,43.28
2023-02-22T09:14:31.851Z,43.17
2023-02-22T09:16:58.446Z,42.05
2023-02-22T09:19:25.042Z,43.53
2023-02-22T09:21:56.185Z,43.13
2023-02-22T09:24:23.306Z,45.38
2023-02-22T09:26:54.119Z,46.63
2023-02-22T09:29:22.878Z,46.17
2023-02-22T09:31:51.336Z,43.47
2023-02-22T09:34:20.108Z,46.53
2023-02-22T09:36:47.909Z,45.28
2023-02-22T09:39:16.396Z,44.28
2023-02-22T09:41:52.375Z,42.33
2023-02-22T09:44:36.154Z,44.70
2023-02-22T09:47:04.221Z,45.03
2023-02-22T09:49:47.268Z,44.83
2023-02-22T09:52:27.868Z,42.60
2023-02-22T09:55:04.739Z,43.72
2023-02-22T09:57:35.233Z,42.53
2023-02-22T10:00:20.777Z,43.53
2023-02-22T10:02:53.519Z,44.83
2023-02-22T10:05:23.066Z,41.67
2023-02-22T10:07:55.395Z,42.50
2023-02-22T10:10:23.772Z,43.30
2023-02-22T10:12:55.854Z,44.40
2023-02-22T10:15:42.907Z,46.35
2023-02-22T10:18:32.739Z,44.53
2023-02-22T10:21:25.589Z,43.83
2023-02-22T10:24:11.641Z,43.90
2023-02-22T10:26:43.092Z,44.15
2023-02-22T10:29:37.673Z,21.70
2023-02-22T10:32:06.663Z,24.42
2023-02-22T10:34:52.836Z,26.75
2023-02-22T10:37:28.937Z,35.80
2023-02-22T10:40:06.204Z,35.55
2023-02-22T10:42:32.831Z,38.97
2023-02-22T10:44:59.776Z,35.88
2023-02-22T10:47:26.514Z,39.80
2023-02-22T10:49:57.593Z,38.90
2023-02-22T10:52:27.697Z,39.80
2023-02-22T10:55:13.724Z,38.30
2023-02-22T10:57:42.542Z,24.35
2023-02-22T11:00:29.268Z,23.02
2023-02-22T11:03:00.885Z,27.88
2023-02-22T11:05:38.409Z,21.95
2023-02-22T11:08:21.653Z,32.08
2023-02-22T11:10:52.854Z,36.75
2023-02-22T11:13:34.005Z,33.80
2023-02-22T11:16:03.302Z,36.15
2023-02-22T11:18:33.781Z,37.97
2023-02-22T11:21:10.211Z,34.15
2023-02-22T11:23:39.343Z,35.72
2023-02-22T11:26:11.177Z,34.55
2023-02-22T11:28:49.130Z,34.30
2023-02-22T11:31:17.759Z,33.47
2023-02-22T11:36:46.691Z,36.45
2023-02-22T11:39:21.643Z,34.22
2023-02-22T11:41:51.099Z,35.08
2023-02-22T11:44:31.737Z,35.20
2023-02-22T11:47:06.814Z,32.88
2023-02-22T11:49:38.617Z,36.58
2023-02-22T11:52:25.566Z,33.90
2023-02-22T11:55:02.476Z,33.85
2023-02-22T11:57:38.562Z,32.33
2023-02-22T12:00:24.623Z,29.50
2023-02-22T12:03:09.573Z,32.83
2023-02-22T12:06:01.046Z,32.33
2023-02-22T12:08:45.835Z,32.42
2023-02-22T12:11:40.413Z,33.95
2023-02-22T12:14:31.794Z,31.10
2023-02-22T12:17:13.916Z,31.02
2023-02-22T12:19:47.701Z,31.10
2023-02-22T12:25:08.968Z,28.92
2023-02-22T12:28:07.679Z,28.65
2023-02-22T12:30:39.801Z,30.85
2023-02-22T12:33:12.995Z,31.20
2023-02-22T12:35:43.180Z,30.70
2023-02-22T12:38:31.392Z,29.88
2023-02-22T12:41:08.769Z,29.42
2023-02-22T12:43:41.747Z,29.02
2023-02-22T12:46:21.796Z,31.08
2023-02-22T12:49:00.891Z,28.83
2023-02-22T12:51:52.694Z,29.48
2023-02-22T12:54:34.167Z,28.55
2023-02-22T12:57:09.892Z,27.88
2023-02-22T12:59:39.333Z,26.77
2023-02-22T13:02:23.116Z,27.10
2023-02-22T13:04:50.026Z,27.17
2023-02-22T13:07:48.962Z,27.65
2023-02-22T13:10:27.437Z,27.05
2023-02-22T13:13:03.826Z,26.55
2023-02-22T13:15:37.711Z,26.67
2023-02-22T13:18:35.748Z,28.70
2023-02-22T13:21:23.446Z,27.85
2023-02-22T13:24:03.480Z,27.42
2023-02-22T13:26:50.744Z,26.80
2023-02-22T13:29:22.223Z,27.38
2023-02-22T13:32:03.666Z,26.40
2023-02-22T13:34:40.230Z,28.52
2023-02-22T13:37:17.768Z,26.15
2023-02-22T13:40:16.858Z,26.98
2023-02-22T13:42:56.813Z,25.17
2023-02-22T13:45:53.939Z,28.05
2023-02-22T13:48:45.963Z,26.88
2023-02-22T13:51:51.839Z,26.10
2023-02-22T13:54:36.616Z,25.48
2023-02-22T13:57:04.357Z,23.42
2023-02-22T13:59:36.154Z,25.02
2023-02-22T14:02:04.553Z,24.73
2023-02-22T14:04:31.036Z,23.35
2023-02-22T14:07:03.899Z,24.58
2023-02-22T14:09:52.611Z,24.20
2023-02-22T14:12:31.422Z,25.25
2023-02-22T14:15:30.265Z,24.83
2023-02-22T14:17:57.468Z,24.75
2023-02-22T14:20:36.903Z,23.73
2023-02-22T14:23:37.643Z,25.73
2023-02-22T14:26:10.413Z,25.60
2023-02-22T14:28:51.635Z,24.73
2023-02-22T14:31:34.893Z,24.20
2023-02-22T14:34:20.189Z,24.52
2023-02-22T14:36:54.804Z,25.63
2023-02-22T14:39:21.322Z,24.92
2023-02-22T14:42:12.500Z,23.80
2023-02-22T14:44:48.811Z,24.10
2023-02-22T14:47:22.353Z,23.38
2023-02-22T14:49:51.188Z,24.02
2023-02-22T14:52:29.012Z,24.27
2023-02-22T14:55:04.422Z,24.73
2023-02-22T14:57:43.688Z,24.83
2023-02-22T15:00:23.199Z,24.98
2023-02-22T15:02:57.293Z,25.60
2023-02-22T15:05:24.117Z,24.70
2023-02-22T15:08:00.688Z,24.95
2023-02-22T15:10:28.807Z,25.02
2023-02-22T15:13:09.803Z,23.70
2023-02-22T15:15:47.496Z,24.67
2023-02-22T15:18:22.026Z,24.02
2023-02-22T15:20:55.956Z,22.85
2023-02-22T15:23:25.929Z,24.27
2023-02-22T15:25:52.573Z,22.55
2023-02-22T15:28:19.334Z,23.42
2023-02-22T15:30:46.010Z,24.40
2023-02-22T15:33:24.287Z,23.27
2023-02-22T15:35:58.192Z,24.48
2023-02-22T15:38:30.035Z,23.70
2023-02-22T15:41:04.610Z,25.83
2023-02-22T15:43:32.741Z,23.40
2023-02-22T15:46:00.654Z,24.02
2023-02-22T15:48:28.433Z,25.73
2023-02-22T15:51:06.813Z,23.05
2023-02-22T15:53:40.651Z,25.25
2023-02-22T15:58:36.474Z,22.95
2023-02-22T16:01:08.239Z,26.08
2023-02-22T16:03:47.189Z,24.02
2023-02-22T16:06:28.728Z,23.55
2023-02-22T16:08:56.964Z,24.77
2023-02-22T16:11:32.847Z,24.92
2023-02-22T16:14:02.156Z,24.10
2023-02-22T16:16:33.951Z,24.35
2023-02-22T16:19:26.514Z,24.60
2023-02-22T16:21:57.878Z,25.70
2023-02-22T16:24:32.498Z,24.05
2023-02-22T16:27:18.732Z,25.75
2023-02-22T16:30:24.838Z,23.75
2023-02-22T16:32:54.514Z,25.33
2023-02-22T16:35:21.995Z,24.55
2023-02-22T16:37:50.773Z,24.35
2023-02-22T16:40:34.018Z,25.35
2023-02-22T16:43:08.992Z,24.90
2023-02-22T16:45:36.123Z,25.33
2023-02-22T16:48:21.507Z,25.30
2023-02-22T16:50:50.921Z,22.25
2023-02-22T16:53:20.043Z,24.58
2023-02-22T16:55:51.064Z,25.20
2023-02-22T16:58:19.208Z,25.00
2023-02-22T17:00:45.881Z,26.35
2023-02-22T17:03:18.467Z,25.58
2023-02-22T17:05:45.170Z,25.42
2023-02-22T17:08:11.842Z,24.00
2023-02-22T17:10:38.681Z,24.50
2023-02-22T17:13:21.572Z,24.40
2023-02-22T17:15:50.102Z,24.85
2023-02-22T17:18:22.524Z,24.40
2023-02-22T17:20:51.142Z,22.92
2023-02-22T17:23:18.133Z,26.23
2023-02-22T17:25:56.509Z,27.02
2023-02-22T17:28:24.596Z,25.80
2023-02-22T17:30:52.831Z,25.38
2023-02-22T17:33:22.674Z,24.80
2023-02-22T17:35:49.299Z,25.42
2023-02-22T17:38:19.039Z,28.15
2023-02-22T17:40:48.140Z,26.20
2023-02-22T17:43:15.621Z,27.42
2023-02-22T17:45:42.423Z,24.00
2023-02-22T17:48:09.282Z,23.63
2023-02-22T17:50:39.974Z,23.48
2023-02-22T17:53:07.566Z,24.13
2023-02-22T17:55:37.867Z,24.65
2023-02-22T17:58:05.248Z,25.23
2023-02-22T18:00:37.173Z,23.42
2023-02-22T18:03:07.049Z,23.95
2023-02-22T18:05:39.058Z,24.60
2023-02-22T18:08:05.723Z,27.05
2023-02-22T18:10:32.349Z,28.65
2023-02-22T18:13:01.948Z,27.02
2023-02-22T18:15:29.359Z,25.10
2023-02-22T18:17:56.765Z,24.88
2023-02-22T18:20:38.170Z,27.00
2023-02-22T18:23:09.107Z,25.85
2023-02-22T18:25:36.563Z,27.38
2023-02-22T18:28:06.237Z,27.63
2023-02-22T18:30:37.478Z,26.42
2023-02-22T18:33:04.270Z,29.25
2023-02-22T18:35:31.004Z,25.20
2023-02-22T18:37:58.005Z,27.05
2023-02-22T18:40:24.654Z,25.45
2023-02-22T18:42:51.367Z,27.40
2023-02-22T18:45:18.130Z,27.30
2023-02-22T18:47:45.578Z,28.88
2023-02-22T18:50:13.506Z,28.25
2023-02-22T18:52:46.081Z,25.45
2023-02-22T18:55:18.658Z,27.40
2023-02-22T18:57:46.150Z,29.52
2023-02-22T19:00:16.576Z,27.67
2023-02-22T19:02:43.597Z,26.52
2023-02-22T19:05:11.644Z,28.33
2023-02-22T19:07:38.920Z,28.40
2023-02-22T19:10:06.985Z,28.77
2023-02-22T19:12:33.929Z,29.40
2023-02-22T19:15:01.027Z,27.90
2023-02-22T19:17:28.979Z,30.65
2023-02-22T19:19:55.924Z,29.95
2023-02-22T19:22:25.938Z,28.88
2023-02-22T19:24:55.884Z,27.52
2023-02-22T19:27:22.811Z,28.60
2023-02-22T19:29:49.827Z,30.02
2023-02-22T19:32:17.567Z,28.92
2023-02-22T19:34:44.592Z,28.70
2023-02-22T19:37:13.047Z,29.52
2023-02-22T19:39:42.236Z,29.15
2023-02-22T19:42:10.254Z,28.20
2023-02-22T19:44:37.469Z,29.85
2023-02-22T19:47:08.967Z,28.45
2023-02-22T19:49:37.183Z,29.48
2023-02-22T19:52:06.596Z,28.48
2023-02-22T19:54:33.542Z,29.73
2023-02-22T19:57:00.453Z,26.92
2023-02-22T19:59:27.355Z,27.80
2023-02-22T20:01:54.691Z,28.52
2023-02-22T20:04:21.791Z,26.58
2023-02-22T20:06:53.897Z,29.00
2023-02-22T20:09:49.328Z,27.73
2023-02-22T20:12:16.007Z,27.75
2023-02-22T20:14:42.697Z,28.95
2023-02-22T20:17:10.251Z,28.98
2023-02-22T20:19:38.680Z,28.85
2023-02-22T20:22:05.315Z,28.50
2023-02-22T20:24:31.987Z,26.13
2023-02-22T20:26:58.695Z,26.63
2023-02-22T20:29:31.997Z,28.40
2023-02-22T20:32:00.171Z,28.08
2023-02-22T20:34:30.398Z,27.92
2023-02-22T20:36:57.484Z,26.95
2023-02-22T20:39:24.268Z,26.83
2023-02-22T20:41:51.018Z,27.50
2023-02-22T20:44:19.124Z,26.73
2023-02-22T20:46:46.673Z,27.90
2023-02-22T20:49:18.742Z,25.95
2023-02-22T20:51:46.767Z,26.52
2023-02-22T20:54:13.849Z,27.65
2023-02-22T20:56:42.022Z,28.27
2023-02-22T20:59:11.247Z,27.98
2023-02-22T21:01:37.870Z,27.20
2023-02-22T21:04:06.401Z,27.98
2023-02-22T21:06:35.634Z,27.17
2023-02-22T21:09:05.168Z,26.98
2023-02-22T21:11:32.099Z,26.23
2023-02-22T21:14:00.148Z,27.85
2023-02-22T21:16:29.406Z,28.05
2023-02-22T21:19:01.042Z,28.15
2023-02-22T21:21:28.571Z,26.55
2023-02-22T21:23:57.618Z,26.55
2023-02-22T21:26:29.571Z,28.33
2023-02-22T21:28:59.890Z,27.42
2023-02-22T21:31:27.126Z,27.33
2023-02-22T21:33:55.164Z,28.17
2023-02-22T21:36:25.406Z,26.77
2023-02-22T21:39:00.847Z,27.48
2023-02-22T21:41:30.189Z,27.40
2023-02-22T21:43:58.733Z,27.40
2023-02-22T21:46:26.654Z,28.08
2023-02-22T21:48:53.352Z,30.13
2023-02-22T21:51:25.866Z,27.30
2023-02-22T21:53:54.551Z,28.10
2023-02-22T21:56:29.144Z,28.40
2023-02-22T21:59:00.998Z,27.58
2023-02-22T22:01:29.741Z,27.67
2023-02-22T22:03:59.560Z,28.88
2023-02-22T22:06:27.906Z,27.65
2023-02-22T22:08:54.746Z,28.50
2023-02-22T22:11:21.717Z,28.77
2023-02-22T22:13:51.473Z,29.20
2023-02-22T22:16:20.258Z,26.63
2023-02-22T22:18:47.054Z,28.83
2023-02-22T22:21:19.391Z,28.75
2023-02-22T22:23:47.198Z,28.25
2023-02-22T22:26:16.578Z,28.05
2023-02-22T22:28:46.506Z,28.80
2023-02-22T22:31:14.150Z,29.38
2023-02-22T22:33:42.404Z,27.90
2023-02-22T22:36:09.913Z,28.80
2023-02-22T22:38:39.338Z,29.30
2023-02-22T22:41:10.502Z,30.70
2023-02-22T22:43:37.619Z,30.25
2023-02-22T22:46:05.504Z,31.27
2023-02-22T22:48:34.547Z,31.33
2023-02-22T22:51:02.780Z,32.17
2023-02-22T22:53:31.662Z,31.55
2023-02-22T22:56:05.874Z,31.58
2023-02-22T22:58:34.176Z,32.03
2023-02-22T23:01:06.619Z,36.65
2023-02-22T23:03:36.832Z,37.58
2023-02-22T23:06:04.862Z,41.60
2023-02-22T23:08:42.947Z,42.67
2023-02-22T23:11:10.848Z,42.03
2023-02-22T23:13:38.704Z,43.03
2023-02-22T23:16:12.957Z,42.20
2023-02-22T23:18:43.100Z,43.03
2023-02-22T23:21:10.664Z,40.97
2023-02-22T23:23:37.976Z,39.60
2023-02-22T23:26:11.626Z,41.38
2023-02-22T23:31:07.363Z,39.28
2023-02-22T23:33:34.061Z,40.22
2023-02-22T23:36:00.714Z,40.42
2023-02-22T23:38:27.339Z,40.10
2023-02-22T23:40:56.426Z,39.53
2023-02-22T23:43:25.449Z,39.67
2023-02-22T23:45:56.661Z,36.70
2023-02-22T23:48:24.311Z,40.47
2023-02-22T23:50:51.289Z,41.63
2023-02-22T23:53:18.387Z,39.83
2023-02-22T23:55:44.974Z,39.92
2023-02-22T23:58:11.604Z,38.10
